Oak Hammock Air Park

CAV9 · 曼尼托巴, 加拿大

罗盘
风向 的 风向 300°
风向 到 风: 13 kt, 阵阵 19 kt, 4 beaufort

添加一条跑道以查看侧风和逆风信息。

添置 跑道
0 1.000 2.000 3.000 4.000 5.000
OVC 1.100 ft
SPECI CYWG 292208Z 30013G19KT 2SM -SN DRSN OVC011 M04/M06 A2956 RMK ST8 SLP026

METAR Oak Hammock Air Park - CAV9

Oak Hammock Air Park是,加拿大中的小机场。 视场标高为755 ft。 该领域的国际民航组织标志是CAV9.

这份报告是针对2022年11月29日 16:08, 当地时间在Winnipeg / James Armstrong Richardson International Airport进行的。

机场观察

风向为300°,速度为13 kt。 已测得19 kt的阵风。

可见度为2 mi。

有乌云密布在1.100 ft的高度。 破损或更高的上限为1.100 ft。

当前天气为光 雪, 低飘 雪。 温度为-4 °C,阵风为-13 °C。 露点为-6 °C,相对湿度为86%。 海平面上的气压为29,56 inHg (QNH)。

白天

今天,太阳从08:03升起,在16:30降落。 这适用于Oak Hammock Air Park,世界夏令时可能有所不同。 当地时间与世界标准时间之间的时差为-6 小时。 当前,没有夏令时有效。

公司介绍

我们没有关于这个机场的公司信息。

体会

到Vliegles.nl去找飞行课程,跳伞和其他飞行体验。 浏览页面,了解Oak Hammock Air Park附近所有可用的活动。 你也可以使用搜索功能来寻找你所在地附近的特定飞行课程、跳伞或其他飞行体验。

乌云

1.100 ft OVC 乌云密布

温度 & 天气

天气 光 雪
低飘 雪
温度 -4 °C
露点 -6 °C
相对湿度 86%
风寒 -13 °C
Kp-index 3 (0-9)

评论

SLP026海平面压力为29,61 inHg (29,61 inHg)
ST8

白天

日出
08:02 (14:19)
中午
12:17
日落
16:31

小工具

你想在你的网站上有一个关于Oak Hammock Air Park的当前航空天气(METAR)的小部件吗?

显示HTML代码

我们和第三方通过cookies跟踪您在我们网站上的互联网行为。如果你继续,我们认为你同意我们的饼干政策